createdAt,value
2023-04-27T00:01:06.521Z,100110.22
2023-04-27T00:03:34.196Z,100116.47
2023-04-27T00:06:01.835Z,100110.03
2023-04-27T00:08:29.173Z,100110.03
2023-04-27T00:10:56.847Z,100117.34
2023-04-27T00:13:24.057Z,100110.81
2023-04-27T00:15:51.304Z,100107.19
2023-04-27T00:18:18.844Z,100119.19
2023-04-27T00:20:46.003Z,100121.34
2023-04-27T00:23:13.192Z,100117.47
2023-04-27T00:25:40.662Z,100113.03
2023-04-27T00:28:08.747Z,100115.97
2023-04-27T00:30:36.205Z,100106.31
2023-04-27T00:33:03.820Z,100109.69
2023-04-27T00:35:32.204Z,100110.03
2023-04-27T00:37:59.470Z,100104.09
2023-04-27T00:40:27.242Z,100103.75
2023-04-27T00:42:54.388Z,100110.44
2023-04-27T00:45:21.599Z,100111.78
2023-04-27T00:47:49.081Z,100111.53
2023-04-27T00:50:16.364Z,100111.63
2023-04-27T00:52:43.514Z,100111.69
2023-04-27T00:55:10.918Z,100109.56
2023-04-27T00:57:40.563Z,100112.44
2023-04-27T01:00:07.847Z,100109.47
2023-04-27T01:02:35.587Z,100116.47
2023-04-27T01:05:03.546Z,100104.31
2023-04-27T01:07:30.787Z,100104.87
2023-04-27T01:09:58.467Z,100112.22
2023-04-27T01:12:26.161Z,100104.63
2023-04-27T01:14:53.313Z,100105.75
2023-04-27T01:17:20.778Z,100108.63
2023-04-27T01:19:47.939Z,100110.63
2023-04-27T01:22:17.544Z,100111.63
2023-04-27T01:24:45.034Z,100123.94
2023-04-27T01:27:12.676Z,100118.53
2023-04-27T01:29:40.222Z,100127.78
2023-04-27T01:32:09.251Z,100116.75
2023-04-27T01:34:36.843Z,100119.91
2023-04-27T01:37:04.591Z,100131.47
2023-04-27T01:39:31.999Z,100126.69
2023-04-27T01:42:00.715Z,100131.41
2023-04-27T01:44:27.838Z,100134.63
2023-04-27T01:46:55.306Z,100141.78
2023-04-27T01:49:22.452Z,100134.97
2023-04-27T01:51:49.695Z,100139.44
2023-04-27T01:54:17.098Z,100137.28
2023-04-27T01:56:44.253Z,100139.69
2023-04-27T01:59:11.533Z,100140.03
2023-04-27T02:01:39.220Z,100147.34
2023-04-27T02:04:06.893Z,100131.63
2023-04-27T02:06:34.245Z,100140.44
2023-04-27T02:09:01.428Z,100138.87
2023-04-27T02:11:28.883Z,100145.03
2023-04-27T02:13:56.492Z,100142.69
2023-04-27T02:16:31.196Z,100146.53
2023-04-27T02:18:59.225Z,100148.00
2023-04-27T02:21:26.505Z,100145.50
2023-04-27T02:23:53.865Z,100145.94
2023-04-27T02:26:22.106Z,100152.66
2023-04-27T02:28:50.138Z,100155.78
2023-04-27T02:31:17.745Z,100159.28
2023-04-27T02:33:46.406Z,100164.59
2023-04-27T02:36:14.896Z,100166.78
2023-04-27T02:38:42.119Z,100163.25
2023-04-27T02:41:10.473Z,100172.97
2023-04-27T02:43:37.675Z,100171.94
2023-04-27T02:46:05.522Z,100179.63
2023-04-27T02:48:33.171Z,100179.00
2023-04-27T02:51:02.861Z,100170.72
2023-04-27T02:53:30.069Z,100169.25
2023-04-27T02:55:58.471Z,100175.38
2023-04-27T02:58:26.101Z,100175.38
2023-04-27T03:00:56.963Z,100187.28
2023-04-27T03:03:24.740Z,100181.28
2023-04-27T03:05:52.091Z,100188.69
2023-04-27T03:08:19.291Z,100186.84
2023-04-27T03:10:46.805Z,100194.28
2023-04-27T03:13:14.326Z,100194.81
2023-04-27T03:15:43.970Z,100193.66
2023-04-27T03:18:11.419Z,100193.37
2023-04-27T03:20:38.602Z,100191.06
2023-04-27T03:23:06.792Z,100187.84
2023-04-27T03:25:34.333Z,100192.03
2023-04-27T03:28:01.760Z,100194.97
2023-04-27T03:30:28.952Z,100199.00
2023-04-27T03:32:56.572Z,100202.59
2023-04-27T03:35:24.388Z,100202.34
2023-04-27T03:37:51.512Z,100208.59
2023-04-27T03:40:18.957Z,100203.63
2023-04-27T03:42:46.223Z,100206.56
2023-04-27T03:45:13.501Z,100210.63
2023-04-27T03:47:41.268Z,100208.94
2023-04-27T03:50:08.735Z,100219.16
2023-04-27T03:52:35.902Z,100222.47
2023-04-27T03:55:04.305Z,100214.78
2023-04-27T03:57:33.055Z,100212.56
2023-04-27T04:00:00.504Z,100222.06
2023-04-27T04:02:28.063Z,100220.66
2023-04-27T04:04:55.834Z,100221.75
2023-04-27T04:07:23.255Z,100230.34
2023-04-27T04:09:50.600Z,100231.88
2023-04-27T04:12:18.763Z,100234.00
2023-04-27T04:14:48.915Z,100231.88
2023-04-27T04:17:16.605Z,100238.06
2023-04-27T04:19:44.033Z,100236.81
2023-04-27T04:22:11.971Z,100237.06
2023-04-27T04:24:40.242Z,100246.28
2023-04-27T04:27:07.910Z,100243.44
2023-04-27T04:29:35.106Z,100243.91
2023-04-27T04:32:02.447Z,100236.22
2023-04-27T04:34:30.481Z,100241.44
2023-04-27T04:36:58.130Z,100243.13
2023-04-27T04:39:27.003Z,100243.06
2023-04-27T04:41:54.546Z,100246.81
2023-04-27T04:44:22.305Z,100251.47
2023-04-27T04:46:50.195Z,100245.56
2023-04-27T04:49:18.002Z,100246.75
2023-04-27T04:51:45.648Z,100253.06
2023-04-27T04:54:12.888Z,100249.16
2023-04-27T04:56:40.374Z,100241.28
2023-04-27T04:59:07.986Z,100253.03
2023-04-27T05:01:35.150Z,100254.50
2023-04-27T05:04:02.958Z,100259.59
2023-04-27T05:06:30.323Z,100264.47
2023-04-27T05:08:57.704Z,100260.25
2023-04-27T05:11:25.295Z,100260.59
2023-04-27T05:13:52.473Z,100255.34
2023-04-27T05:16:19.665Z,100262.69
2023-04-27T05:18:47.088Z,100263.16
2023-04-27T05:21:17.763Z,100263.59
2023-04-27T05:23:44.922Z,100272.75
2023-04-27T05:26:15.632Z,100267.09
2023-04-27T05:28:42.828Z,100275.69
2023-04-27T05:31:10.096Z,100271.78
2023-04-27T05:33:37.639Z,100280.41
2023-04-27T05:36:05.152Z,100273.06
2023-04-27T05:38:33.495Z,100274.97
2023-04-27T05:41:00.932Z,100273.78
2023-04-27T05:43:28.099Z,100281.81
2023-04-27T05:45:55.296Z,100284.44
2023-04-27T05:48:22.847Z,100284.34
2023-04-27T05:50:49.989Z,100286.72
2023-04-27T05:53:17.303Z,100284.94
2023-04-27T05:55:44.740Z,100288.53
2023-04-27T05:58:11.974Z,100290.16
2023-04-27T06:00:39.193Z,100293.72
2023-04-27T06:03:07.259Z,100296.28
2023-04-27T06:05:34.867Z,100294.25
2023-04-27T06:08:02.163Z,100289.09
2023-04-27T06:10:29.749Z,100296.78
2023-04-27T06:12:56.916Z,100302.34
2023-04-27T06:15:24.075Z,100292.22
2023-04-27T06:17:51.589Z,100298.41
2023-04-27T06:20:18.782Z,100302.13
2023-04-27T06:22:46.911Z,100304.38
2023-04-27T06:25:14.532Z,100304.41
2023-04-27T06:27:41.904Z,100303.84
2023-04-27T06:30:09.396Z,100302.13
2023-04-27T06:32:36.842Z,100304.53
2023-04-27T06:35:04.133Z,100295.84
2023-04-27T06:37:31.337Z,100295.47
2023-04-27T06:39:58.920Z,100292.47
2023-04-27T06:42:27.057Z,100286.16
2023-04-27T06:44:55.916Z,100291.81
2023-04-27T06:47:23.481Z,100295.94
2023-04-27T06:49:51.273Z,100298.41
2023-04-27T06:52:18.494Z,100298.44
2023-04-27T06:54:46.052Z,100294.81
2023-04-27T06:57:13.386Z,100298.59
2023-04-27T06:59:40.680Z,100296.91
2023-04-27T07:02:09.195Z,100302.69
2023-04-27T07:04:38.276Z,100298.59
2023-04-27T07:07:05.851Z,100295.31
2023-04-27T07:09:33.560Z,100290.84
2023-04-27T07:12:01.597Z,100287.59
2023-04-27T07:14:28.750Z,100290.16
2023-04-27T07:16:56.494Z,100282.34
2023-04-27T07:19:23.701Z,100274.91
2023-04-27T07:21:50.919Z,100282.09
2023-04-27T07:24:18.336Z,100280.28
2023-04-27T07:26:45.594Z,100289.66
2023-04-27T07:31:44.196Z,100298.66
2023-04-27T07:34:11.456Z,100300.44
2023-04-27T07:36:38.607Z,100299.47
2023-04-27T07:39:06.417Z,100298.25
2023-04-27T07:41:34.672Z,100300.78
2023-04-27T07:44:02.551Z,100296.91
2023-04-27T07:46:31.757Z,100289.56
2023-04-27T07:49:00.418Z,100291.72
2023-04-27T07:51:29.349Z,100278.03
2023-04-27T07:53:56.827Z,100291.09
2023-04-27T07:56:24.102Z,100291.00
2023-04-27T07:58:51.749Z,100301.09
2023-04-27T08:01:21.302Z,100301.09
2023-04-27T08:03:49.171Z,100296.09
2023-04-27T08:06:17.169Z,100303.56
2023-04-27T08:08:44.521Z,100300.22
2023-04-27T08:11:12.159Z,100298.94
2023-04-27T08:13:39.357Z,100293.75
2023-04-27T08:16:07.054Z,100290.28
2023-04-27T08:18:34.620Z,100295.78
2023-04-27T08:21:01.852Z,100309.81
2023-04-27T08:23:29.463Z,100311.44
2023-04-27T08:25:57.624Z,100314.66
2023-04-27T08:28:25.121Z,100313.59
2023-04-27T08:30:52.324Z,100304.97
2023-04-27T08:33:19.932Z,100302.53
2023-04-27T08:35:47.135Z,100309.38
2023-04-27T08:38:14.280Z,100315.50
2023-04-27T08:40:44.969Z,100306.16
2023-04-27T08:43:12.194Z,100309.16
2023-04-27T08:45:40.697Z,100304.28
2023-04-27T08:48:08.290Z,100314.59
2023-04-27T08:50:36.314Z,100311.63
2023-04-27T08:53:03.443Z,100300.78
2023-04-27T08:55:30.851Z,100295.81
2023-04-27T08:57:58.424Z,100299.41
2023-04-27T09:00:26.233Z,100291.16
2023-04-27T09:02:53.802Z,100290.06
2023-04-27T09:05:22.171Z,100276.94
2023-04-27T09:07:59.119Z,100280.59
2023-04-27T09:10:29.335Z,100289.56
2023-04-27T09:13:01.041Z,100280.41
2023-04-27T09:15:29.334Z,100283.78
2023-04-27T09:17:56.941Z,100274.13
2023-04-27T09:20:24.410Z,100275.22
2023-04-27T09:22:52.980Z,100273.44
2023-04-27T09:25:23.602Z,100277.13
2023-04-27T09:27:50.924Z,100276.44
2023-04-27T09:30:18.971Z,100267.72
2023-04-27T09:32:51.431Z,100274.66
2023-04-27T09:35:22.947Z,100271.28
2023-04-27T09:37:52.153Z,100265.34
2023-04-27T09:40:20.506Z,100267.53
2023-04-27T09:42:47.808Z,100258.94
2023-04-27T09:45:15.090Z,100262.28
2023-04-27T09:47:42.883Z,100264.09
2023-04-27T09:50:10.275Z,100256.72
2023-04-27T09:52:38.432Z,100256.31
2023-04-27T09:55:07.045Z,100263.19
2023-04-27T09:57:39.546Z,100266.97
2023-04-27T10:00:10.830Z,100261.03
2023-04-27T10:02:52.667Z,100249.81
2023-04-27T10:05:36.860Z,100246.97
2023-04-27T10:08:05.039Z,100239.03
2023-04-27T10:10:41.996Z,100235.81
2023-04-27T10:13:09.579Z,100246.41
2023-04-27T10:15:39.656Z,100242.28
2023-04-27T10:18:07.393Z,100243.63
2023-04-27T10:20:36.393Z,100241.88
2023-04-27T10:23:03.708Z,100230.78
2023-04-27T10:25:41.406Z,100239.50
2023-04-27T10:28:14.986Z,100231.91
2023-04-27T10:30:45.326Z,100243.00
2023-04-27T10:33:15.587Z,100232.16
2023-04-27T10:35:43.327Z,100229.12
2023-04-27T10:38:17.580Z,100239.94
2023-04-27T10:40:46.123Z,100240.41
2023-04-27T10:43:17.664Z,100245.69
2023-04-27T10:45:45.459Z,100233.56
2023-04-27T10:48:15.651Z,100246.94
2023-04-27T10:50:44.883Z,100244.88
2023-04-27T10:53:12.707Z,100247.44
2023-04-27T10:55:39.956Z,100247.25
2023-04-27T10:58:07.203Z,100240.00
2023-04-27T11:00:44.883Z,100244.78
2023-04-27T11:03:14.549Z,100239.66
2023-04-27T11:05:46.244Z,100242.50
2023-04-27T11:08:14.903Z,100229.06
2023-04-27T11:10:52.006Z,100233.75
2023-04-27T11:13:20.254Z,100235.59
2023-04-27T11:15:49.100Z,100230.94
2023-04-27T11:18:17.567Z,100237.03
2023-04-27T11:20:47.642Z,100235.44
2023-04-27T11:23:25.839Z,100233.50
2023-04-27T11:25:53.082Z,100220.16
2023-04-27T11:28:21.453Z,100213.72
2023-04-27T11:30:55.848Z,100228.22
2023-04-27T11:33:23.372Z,100228.31
2023-04-27T11:35:50.518Z,100228.38
2023-04-27T11:38:18.962Z,100237.06
2023-04-27T11:40:46.858Z,100232.47
2023-04-27T11:43:14.153Z,100232.16
2023-04-27T11:45:45.025Z,100234.19
2023-04-27T11:48:15.676Z,100220.03
2023-04-27T11:50:49.405Z,100228.19
2023-04-27T11:53:18.857Z,100225.38
2023-04-27T11:55:51.780Z,100236.84
2023-04-27T11:58:19.955Z,100221.50
2023-04-27T12:00:47.708Z,100239.16
2023-04-27T12:03:15.302Z,100232.28
2023-04-27T12:05:53.049Z,100224.53
2023-04-27T12:08:20.735Z,100232.56
2023-04-27T12:10:47.926Z,100235.19
2023-04-27T12:13:15.070Z,100232.69
2023-04-27T12:15:43.807Z,100229.22
2023-04-27T12:18:10.968Z,100225.09
2023-04-27T12:20:38.347Z,100215.53
2023-04-27T12:23:06.163Z,100218.47
2023-04-27T12:25:33.339Z,100217.75
2023-04-27T12:28:00.569Z,100223.31
2023-04-27T12:30:28.100Z,100223.13
2023-04-27T12:32:55.542Z,100221.50
2023-04-27T12:35:22.784Z,100213.97
2023-04-27T12:37:50.243Z,100215.97
2023-04-27T12:40:17.402Z,100222.38
2023-04-27T12:42:44.644Z,100220.09
2023-04-27T12:45:12.158Z,100217.47
2023-04-27T12:47:58.355Z,100215.66
2023-04-27T12:50:27.701Z,100222.16
2023-04-27T12:52:54.911Z,100216.56
2023-04-27T12:55:32.034Z,100213.63
2023-04-27T12:58:01.154Z,100221.28
2023-04-27T13:00:29.841Z,100218.06
2023-04-27T13:02:57.574Z,100216.00
2023-04-27T13:05:26.040Z,100218.34
2023-04-27T13:07:53.389Z,100219.78
2023-04-27T13:10:20.749Z,100219.16
2023-04-27T13:12:48.230Z,100211.88
2023-04-27T13:15:15.428Z,100219.16
2023-04-27T13:17:43.841Z,100217.00
2023-04-27T13:20:11.969Z,100219.00
2023-04-27T13:22:40.719Z,100213.00
2023-04-27T13:25:09.490Z,100220.84
2023-04-27T13:27:36.970Z,100218.81
2023-04-27T13:30:05.299Z,100219.97
2023-04-27T13:32:32.914Z,100216.59
2023-04-27T13:35:00.716Z,100216.53
2023-04-27T13:37:27.937Z,100218.16
2023-04-27T13:39:55.403Z,100214.81
2023-04-27T13:42:29.086Z,100216.00
2023-04-27T13:44:59.437Z,100217.19
2023-04-27T13:47:29.210Z,100215.28
2023-04-27T13:49:56.400Z,100213.00
2023-04-27T13:52:23.586Z,100209.84
2023-04-27T13:54:51.182Z,100211.22
2023-04-27T13:57:18.364Z,100216.25
2023-04-27T13:59:45.794Z,100211.16
2023-04-27T14:02:13.365Z,100209.06
2023-04-27T14:04:40.883Z,100201.78
2023-04-27T14:07:09.268Z,100218.12
2023-04-27T14:09:36.539Z,100212.81
2023-04-27T14:12:04.444Z,100214.81
2023-04-27T14:14:31.656Z,100212.56
2023-04-27T14:16:59.014Z,100218.28
2023-04-27T14:19:27.418Z,100219.03
2023-04-27T14:21:56.140Z,100216.94
2023-04-27T14:24:23.313Z,100221.94
2023-04-27T14:26:51.219Z,100213.34
2023-04-27T14:29:19.036Z,100210.31
2023-04-27T14:31:47.069Z,100220.66
2023-04-27T14:34:14.700Z,100223.69
2023-04-27T14:36:41.829Z,100224.38
2023-04-27T14:39:09.699Z,100225.81
2023-04-27T14:41:40.053Z,100221.41
2023-04-27T14:44:07.717Z,100229.09
2023-04-27T14:46:34.971Z,100229.91
2023-04-27T14:49:02.568Z,100227.53
2023-04-27T14:51:29.713Z,100217.59
2023-04-27T14:53:57.231Z,100230.28
2023-04-27T14:56:24.907Z,100225.22
2023-04-27T14:58:52.045Z,100230.66
2023-04-27T15:01:19.286Z,100228.03
2023-04-27T15:03:46.897Z,100236.00
2023-04-27T15:06:14.358Z,100227.53
2023-04-27T15:08:41.623Z,100220.66
2023-04-27T15:11:09.089Z,100228.44
2023-04-27T15:13:36.635Z,100221.78
2023-04-27T15:16:05.122Z,100230.94
2023-04-27T15:18:32.668Z,100226.00
2023-04-27T15:20:59.951Z,100229.66
2023-04-27T15:23:27.287Z,100224.56
2023-04-27T15:25:55.404Z,100228.41
2023-04-27T15:28:22.622Z,100226.28
2023-04-27T15:30:49.807Z,100230.13
2023-04-27T15:33:17.494Z,100230.87
2023-04-27T15:35:44.774Z,100217.97
2023-04-27T15:38:12.603Z,100223.63
2023-04-27T15:40:40.084Z,100222.66
2023-04-27T15:43:07.399Z,100225.72
2023-04-27T15:45:34.857Z,100235.00
2023-04-27T15:48:02.383Z,100230.41
2023-04-27T15:50:29.700Z,100226.00
2023-04-27T15:52:56.994Z,100218.94
2023-04-27T15:55:24.526Z,100219.53
2023-04-27T15:57:51.687Z,100226.91
2023-04-27T16:00:22.033Z,100222.19
2023-04-27T16:02:49.691Z,100214.94
2023-04-27T16:05:17.002Z,100231.16
2023-04-27T16:07:44.476Z,100225.69
2023-04-27T16:10:12.223Z,100218.97
2023-04-27T16:12:39.622Z,100230.34
2023-04-27T16:15:10.074Z,100226.44
2023-04-27T16:17:38.708Z,100236.47
2023-04-27T16:20:09.741Z,100233.19
2023-04-27T16:22:37.193Z,100234.66
2023-04-27T16:25:06.627Z,100225.91
2023-04-27T16:27:34.403Z,100234.09
2023-04-27T16:30:01.677Z,100236.69
2023-04-27T16:32:29.324Z,100234.69
2023-04-27T16:34:56.522Z,100238.47
2023-04-27T16:37:23.712Z,100239.59
2023-04-27T16:39:51.144Z,100235.50
2023-04-27T16:42:21.533Z,100240.44
2023-04-27T16:44:48.741Z,100243.78
2023-04-27T16:47:16.141Z,100233.00
2023-04-27T16:49:44.311Z,100241.78
2023-04-27T16:52:11.841Z,100236.87
2023-04-27T16:54:39.227Z,100244.37
2023-04-27T16:57:07.851Z,100242.59
2023-04-27T16:59:35.079Z,100252.09
2023-04-27T17:02:16.377Z,100253.31
2023-04-27T17:04:49.910Z,100257.25
2023-04-27T17:07:18.431Z,100256.72
2023-04-27T17:09:45.759Z,100257.25
2023-04-27T17:12:14.645Z,100261.69
2023-04-27T17:14:42.671Z,100259.78
2023-04-27T17:17:10.137Z,100261.59
2023-04-27T17:19:37.360Z,100259.72
2023-04-27T17:22:04.798Z,100265.47
2023-04-27T17:24:32.057Z,100255.22
2023-04-27T17:26:59.215Z,100259.84
2023-04-27T17:29:26.777Z,100266.97
2023-04-27T17:31:53.922Z,100266.34
2023-04-27T17:34:21.682Z,100268.28
2023-04-27T17:36:49.141Z,100272.97
2023-04-27T17:39:16.423Z,100273.91
2023-04-27T17:41:44.289Z,100281.59
2023-04-27T17:44:12.644Z,100278.31
2023-04-27T17:46:45.005Z,100278.78
2023-04-27T17:49:13.106Z,100287.47
2023-04-27T17:51:40.646Z,100283.03
2023-04-27T17:54:07.824Z,100291.63
2023-04-27T17:56:35.211Z,100282.69
2023-04-27T17:59:03.201Z,100290.19
2023-04-27T18:01:30.679Z,100293.88
2023-04-27T18:04:02.973Z,100297.72
2023-04-27T18:06:32.124Z,100292.97
2023-04-27T18:08:59.717Z,100300.28
2023-04-27T18:11:27.076Z,100293.09
2023-04-27T18:13:54.870Z,100303.44
2023-04-27T18:16:22.381Z,100307.56
2023-04-27T18:18:50.246Z,100306.84
2023-04-27T18:21:17.587Z,100318.41
2023-04-27T18:23:44.967Z,100312.91
2023-04-27T18:26:12.490Z,100316.62
2023-04-27T18:28:42.046Z,100322.78
2023-04-27T18:31:16.221Z,100322.37
2023-04-27T18:33:43.858Z,100327.56
2023-04-27T18:36:11.292Z,100331.78
2023-04-27T18:38:39.134Z,100335.72
2023-04-27T18:41:06.946Z,100335.75
2023-04-27T18:43:35.749Z,100338.03
2023-04-27T18:46:03.532Z,100345.94
2023-04-27T18:48:31.265Z,100351.84
2023-04-27T18:50:58.913Z,100348.59
2023-04-27T18:53:27.131Z,100360.31
2023-04-27T18:55:54.404Z,100360.50
2023-04-27T18:58:22.219Z,100361.22
2023-04-27T19:00:49.601Z,100365.94
2023-04-27T19:03:16.938Z,100365.75
2023-04-27T19:05:44.903Z,100370.50
2023-04-27T19:08:12.122Z,100369.19
2023-04-27T19:10:41.845Z,100376.69
2023-04-27T19:13:10.113Z,100373.00
2023-04-27T19:15:37.336Z,100370.91
2023-04-27T19:18:10.619Z,100379.31
2023-04-27T19:20:40.323Z,100378.75
2023-04-27T19:23:09.597Z,100382.69
2023-04-27T19:25:37.465Z,100382.84
2023-04-27T19:28:05.861Z,100379.28
2023-04-27T19:30:34.207Z,100381.06
2023-04-27T19:33:02.211Z,100394.62
2023-04-27T19:35:30.510Z,100397.81
2023-04-27T19:37:58.316Z,100402.34
2023-04-27T19:40:26.537Z,100393.78
2023-04-27T19:42:54.500Z,100392.50
2023-04-27T19:45:23.637Z,100394.47
2023-04-27T19:47:51.020Z,100395.91
2023-04-27T19:50:20.254Z,100393.59
2023-04-27T19:52:48.224Z,100390.47
2023-04-27T19:55:15.703Z,100392.09
2023-04-27T19:57:44.142Z,100391.16
2023-04-27T20:00:12.595Z,100395.59
2023-04-27T20:02:40.766Z,100396.56
2023-04-27T20:05:09.040Z,100392.47
2023-04-27T20:07:37.421Z,100388.50
2023-04-27T20:10:05.622Z,100394.41
2023-04-27T20:12:51.484Z,100391.62
2023-04-27T20:15:20.277Z,100385.19
2023-04-27T20:17:47.912Z,100389.34
2023-04-27T20:20:15.141Z,100390.94
2023-04-27T20:22:42.299Z,100400.38
2023-04-27T20:25:09.699Z,100400.69
2023-04-27T20:27:36.845Z,100396.31
2023-04-27T20:30:04.369Z,100412.44
2023-04-27T20:32:31.820Z,100402.56
2023-04-27T20:35:01.449Z,100399.75
2023-04-27T20:37:29.452Z,100404.44
2023-04-27T20:39:56.856Z,100406.00
2023-04-27T20:42:24.643Z,100404.34
2023-04-27T20:44:54.897Z,100412.84
2023-04-27T20:47:22.591Z,100402.09
2023-04-27T20:49:49.784Z,100399.87
2023-04-27T20:52:17.013Z,100400.69
2023-04-27T20:54:44.422Z,100402.06
2023-04-27T20:57:14.238Z,100412.25
2023-04-27T20:59:41.608Z,100416.94
2023-04-27T21:02:09.118Z,100411.84
2023-04-27T21:04:36.438Z,100416.63
2023-04-27T21:07:03.819Z,100416.19
2023-04-27T21:09:31.488Z,100414.84
2023-04-27T21:11:58.631Z,100421.41
2023-04-27T21:14:25.970Z,100424.47
2023-04-27T21:16:53.480Z,100423.84
2023-04-27T21:19:20.706Z,100423.16
2023-04-27T21:21:47.880Z,100414.69
2023-04-27T21:24:15.373Z,100415.59
2023-04-27T21:26:42.551Z,100430.37
2023-04-27T21:29:09.693Z,100423.19
2023-04-27T21:31:37.387Z,100427.88
2023-04-27T21:34:04.649Z,100433.50
2023-04-27T21:36:32.184Z,100445.34
2023-04-27T21:38:59.636Z,100434.63
2023-04-27T21:41:26.810Z,100438.78
2023-04-27T21:43:54.095Z,100437.09
2023-04-27T21:46:22.979Z,100441.09
2023-04-27T21:48:50.260Z,100436.16
2023-04-27T21:51:17.469Z,100442.41
2023-04-27T21:53:44.967Z,100443.06
2023-04-27T21:56:12.119Z,100443.06
2023-04-27T21:59:19.485Z,100449.28
2023-04-27T22:01:47.310Z,100446.84
2023-04-27T22:04:16.687Z,100450.84
2023-04-27T22:06:44.678Z,100453.09
2023-04-27T22:09:12.336Z,100451.09
2023-04-27T22:11:39.912Z,100451.53
2023-04-27T22:14:07.069Z,100452.91
2023-04-27T22:16:34.326Z,100446.66
2023-04-27T22:19:01.783Z,100455.38
2023-04-27T22:21:28.934Z,100452.25
2023-04-27T22:23:56.095Z,100459.81
2023-04-27T22:26:23.569Z,100460.00
2023-04-27T22:28:50.712Z,100466.50
2023-04-27T22:31:17.990Z,100462.97
2023-04-27T22:33:45.405Z,100467.13
2023-04-27T22:36:12.513Z,100462.50
2023-04-27T22:38:39.637Z,100466.28
2023-04-27T22:41:07.469Z,100470.75
2023-04-27T22:43:34.621Z,100472.50
2023-04-27T22:46:01.797Z,100472.41
2023-04-27T22:48:29.199Z,100471.75
2023-04-27T22:50:56.334Z,100472.09
2023-04-27T22:53:23.445Z,100474.78
2023-04-27T22:55:51.053Z,100469.53
2023-04-27T22:58:18.448Z,100471.00
2023-04-27T23:00:45.851Z,100477.56
2023-04-27T23:03:15.550Z,100475.06
2023-04-27T23:05:43.292Z,100475.72
2023-04-27T23:08:10.409Z,100472.75
2023-04-27T23:10:38.926Z,100482.47
2023-04-27T23:13:07.287Z,100482.78
2023-04-27T23:15:34.499Z,100480.06
2023-04-27T23:18:02.107Z,100475.47
2023-04-27T23:20:29.489Z,100478.97
2023-04-27T23:22:56.719Z,100478.34
2023-04-27T23:25:24.192Z,100480.44
2023-04-27T23:27:52.600Z,100476.41
2023-04-27T23:30:20.503Z,100477.56
2023-04-27T23:32:47.961Z,100474.22
2023-04-27T23:35:15.209Z,100478.41
2023-04-27T23:37:42.378Z,100470.06
2023-04-27T23:40:10.150Z,100476.75
2023-04-27T23:42:37.310Z,100464.47
2023-04-27T23:45:05.003Z,100463.72
2023-04-27T23:47:34.204Z,100468.97
2023-04-27T23:50:02.961Z,100468.16
2023-04-27T23:52:30.123Z,100474.84
2023-04-27T23:54:57.845Z,100473.66
2023-04-27T23:57:25.113Z,100474.25
2023-04-27T23:59:52.306Z,100473.22
